createdAt,value
2017-10-15T00:01:50.912Z,9.50
2017-10-15T00:04:17.348Z,9.50
2017-10-15T00:06:44.498Z,9.60
2017-10-15T00:09:10.917Z,9.50
2017-10-15T00:11:37.309Z,9.60
2017-10-15T00:14:03.694Z,9.70
2017-10-15T00:16:30.132Z,9.60
2017-10-15T00:18:58.030Z,9.50
2017-10-15T00:21:25.244Z,9.40
2017-10-15T00:23:51.726Z,9.40
2017-10-15T00:26:18.116Z,9.40
2017-10-15T00:28:44.502Z,9.20
2017-10-15T00:31:10.922Z,9.00
2017-10-15T00:33:37.332Z,9.20
2017-10-15T00:36:04.503Z,9.30
2017-10-15T00:38:30.967Z,9.30
2017-10-15T00:40:57.403Z,9.20
2017-10-15T00:43:23.874Z,9.20
2017-10-15T00:45:51.814Z,9.30
2017-10-15T00:48:18.228Z,9.30
2017-10-15T00:50:44.644Z,9.40
2017-10-15T00:53:11.097Z,9.40
2017-10-15T00:55:37.578Z,9.20
2017-10-15T00:58:03.984Z,9.20
2017-10-15T01:00:30.448Z,9.30
2017-10-15T01:02:57.619Z,9.40
2017-10-15T01:05:24.053Z,9.30
2017-10-15T01:07:50.529Z,9.40
2017-10-15T01:10:16.965Z,9.30
2017-10-15T01:12:43.385Z,9.30
2017-10-15T01:15:09.828Z,9.30
2017-10-15T01:17:36.239Z,9.40
2017-10-15T01:20:02.662Z,9.40
2017-10-15T01:22:29.130Z,9.40
2017-10-15T01:24:55.676Z,9.50
2017-10-15T01:27:22.871Z,9.60
2017-10-15T01:29:49.305Z,9.50
2017-10-15T01:32:15.769Z,9.50
2017-10-15T01:34:42.226Z,9.60
2017-10-15T01:37:08.699Z,9.50
2017-10-15T01:39:35.957Z,9.50
2017-10-15T01:42:02.422Z,9.50
2017-10-15T01:44:29.241Z,9.40
2017-10-15T01:46:55.707Z,9.40
2017-10-15T01:49:22.172Z,9.30
2017-10-15T01:51:48.679Z,9.30
2017-10-15T01:54:15.107Z,9.30
2017-10-15T01:56:41.569Z,9.00
2017-10-15T01:59:09.461Z,8.80
2017-10-15T02:01:36.646Z,8.90
2017-10-15T02:04:03.052Z,8.90
2017-10-15T02:06:29.493Z,8.90
2017-10-15T02:08:55.926Z,8.90
2017-10-15T02:11:22.382Z,8.90
2017-10-15T02:13:48.852Z,9.00
2017-10-15T02:16:15.304Z,9.10
2017-10-15T02:18:42.469Z,9.10
2017-10-15T02:21:08.929Z,9.10
2017-10-15T02:23:35.361Z,9.10
2017-10-15T02:26:01.784Z,8.80
2017-10-15T02:28:28.183Z,8.70
2017-10-15T02:30:55.324Z,8.90
2017-10-15T02:33:22.746Z,8.80
2017-10-15T02:35:49.170Z,8.80
2017-10-15T02:38:15.568Z,8.90
2017-10-15T02:40:43.778Z,8.90
2017-10-15T02:43:10.243Z,8.90
2017-10-15T02:45:37.429Z,8.90
2017-10-15T02:48:04.593Z,8.70
2017-10-15T02:50:31.015Z,8.70
2017-10-15T02:52:57.444Z,8.70
2017-10-15T02:55:23.851Z,8.70
2017-10-15T02:57:50.997Z,8.90
2017-10-15T03:00:17.389Z,8.90
2017-10-15T03:02:43.815Z,8.80
2017-10-15T03:05:10.186Z,8.80
2017-10-15T03:07:37.324Z,8.70
2017-10-15T03:10:03.749Z,8.70
2017-10-15T03:12:30.189Z,8.70
2017-10-15T03:14:56.560Z,8.70
2017-10-15T03:17:22.959Z,8.70
2017-10-15T03:19:49.388Z,8.70
2017-10-15T03:22:16.546Z,8.60
2017-10-15T03:24:43.729Z,8.60
2017-10-15T03:27:10.885Z,8.60
2017-10-15T03:29:37.276Z,8.60
2017-10-15T03:32:05.149Z,8.40
2017-10-15T03:34:31.758Z,8.40
2017-10-15T03:36:58.167Z,8.40
2017-10-15T03:39:24.562Z,8.40
2017-10-15T03:41:51.759Z,8.50
2017-10-15T03:44:18.174Z,8.50
2017-10-15T03:46:44.607Z,8.60
2017-10-15T03:49:11.025Z,8.50
2017-10-15T03:51:38.168Z,8.40
2017-10-15T03:54:05.309Z,8.40
2017-10-15T03:56:31.699Z,8.30
2017-10-15T03:58:58.135Z,8.30
2017-10-15T04:01:24.545Z,8.30
2017-10-15T04:03:50.979Z,8.40
2017-10-15T04:06:17.368Z,8.30
2017-10-15T04:08:43.787Z,8.30
2017-10-15T04:11:10.213Z,8.30
2017-10-15T04:13:36.605Z,8.30
2017-10-15T04:16:03.009Z,8.30
2017-10-15T04:18:30.176Z,8.20
2017-10-15T04:20:56.609Z,8.20
2017-10-15T04:23:23.042Z,8.30
2017-10-15T04:25:49.447Z,8.30
2017-10-15T04:28:15.846Z,8.20
2017-10-15T04:30:42.272Z,8.20
2017-10-15T04:33:08.660Z,8.30
2017-10-15T04:35:35.787Z,8.10
2017-10-15T04:38:02.204Z,8.10
2017-10-15T04:40:28.600Z,8.10
2017-10-15T04:42:54.983Z,8.10
2017-10-15T04:45:21.460Z,7.90
2017-10-15T04:47:47.896Z,7.80
2017-10-15T04:50:14.300Z,7.80
2017-10-15T04:52:41.592Z,7.90
2017-10-15T04:55:07.988Z,7.90
2017-10-15T04:57:34.420Z,8.00
2017-10-15T05:00:01.590Z,8.00
2017-10-15T05:02:27.991Z,8.00
2017-10-15T05:04:55.143Z,8.00
2017-10-15T05:07:22.309Z,8.00
2017-10-15T05:09:49.463Z,8.10
2017-10-15T05:12:15.854Z,8.00
2017-10-15T05:14:42.288Z,8.00
2017-10-15T05:17:08.668Z,8.00
2017-10-15T05:19:35.069Z,7.90
2017-10-15T05:22:01.464Z,7.90
2017-10-15T05:24:27.902Z,8.00
2017-10-15T05:26:54.261Z,8.00
2017-10-15T05:29:20.674Z,8.00
2017-10-15T05:31:47.120Z,8.00
2017-10-15T05:34:14.309Z,8.00
2017-10-15T05:36:40.784Z,8.00
2017-10-15T05:39:07.206Z,8.00
2017-10-15T05:41:33.633Z,8.00
2017-10-15T05:44:00.058Z,8.00
2017-10-15T05:46:26.624Z,8.00
2017-10-15T05:48:54.569Z,8.00
2017-10-15T05:51:21.009Z,8.00
2017-10-15T05:53:47.460Z,8.00
2017-10-15T05:56:13.872Z,8.10
2017-10-15T05:58:40.357Z,8.00
2017-10-15T06:01:07.552Z,8.00
2017-10-15T06:03:34.065Z,7.90
2017-10-15T06:06:00.502Z,8.00
2017-10-15T06:08:26.923Z,8.00
2017-10-15T06:10:53.357Z,8.00
2017-10-15T06:13:19.799Z,8.10
2017-10-15T06:15:46.226Z,8.30
2017-10-15T06:18:12.664Z,8.60
2017-10-15T06:20:39.068Z,8.80
2017-10-15T06:23:06.271Z,9.30
2017-10-15T06:25:34.185Z,9.60
2017-10-15T06:28:01.309Z,10.00
2017-10-15T06:30:27.748Z,10.00
2017-10-15T06:32:54.147Z,10.20
2017-10-15T06:35:20.558Z,10.30
2017-10-15T06:37:46.965Z,10.40
2017-10-15T06:40:14.141Z,10.60
2017-10-15T06:42:40.525Z,10.50
2017-10-15T06:45:08.409Z,10.30
2017-10-15T06:47:36.313Z,10.40
2017-10-15T06:50:02.742Z,10.50
2017-10-15T06:52:29.113Z,10.80
2017-10-15T06:54:55.590Z,10.60
2017-10-15T06:57:22.046Z,10.80
2017-10-15T06:59:48.543Z,11.40
2017-10-15T07:02:15.793Z,11.90
2017-10-15T07:04:42.290Z,11.90
2017-10-15T07:07:08.723Z,11.90
2017-10-15T07:09:35.100Z,12.10
2017-10-15T07:12:01.494Z,12.40
2017-10-15T07:14:27.882Z,12.70
2017-10-15T07:16:54.276Z,13.00
2017-10-15T07:19:20.697Z,12.90
2017-10-15T07:21:47.096Z,13.10
2017-10-15T07:24:13.518Z,12.80
2017-10-15T07:26:39.916Z,12.90
2017-10-15T07:29:07.808Z,13.60
2017-10-15T07:31:34.250Z,13.70
2017-10-15T07:34:00.645Z,13.70
2017-10-15T07:36:27.067Z,13.50
2017-10-15T07:38:53.478Z,13.30
2017-10-15T07:41:19.879Z,13.20
2017-10-15T07:43:46.305Z,13.30
2017-10-15T07:46:12.681Z,13.40
2017-10-15T07:48:40.131Z,13.70
2017-10-15T07:51:06.533Z,14.00
2017-10-15T07:53:32.951Z,13.90
2017-10-15T07:55:59.383Z,14.10
2017-10-15T07:58:26.498Z,14.90
2017-10-15T08:00:52.875Z,14.90
2017-10-15T08:03:20.002Z,14.80
2017-10-15T08:05:46.631Z,14.80
2017-10-15T08:08:13.773Z,15.20
2017-10-15T08:10:40.182Z,15.20
2017-10-15T08:13:06.621Z,15.60
2017-10-15T08:15:33.046Z,15.60
2017-10-15T08:17:59.438Z,15.50
2017-10-15T08:20:26.629Z,15.60
2017-10-15T08:22:53.063Z,15.60
2017-10-15T08:25:19.455Z,15.70
2017-10-15T08:27:45.900Z,15.80
2017-10-15T08:30:12.328Z,16.10
2017-10-15T08:32:38.811Z,16.20
2017-10-15T08:35:06.010Z,16.20
2017-10-15T08:37:32.432Z,16.20
2017-10-15T08:39:59.599Z,16.80
2017-10-15T08:42:25.982Z,16.80
2017-10-15T08:44:52.439Z,17.00
2017-10-15T08:47:18.839Z,17.20
2017-10-15T08:49:45.274Z,17.50
2017-10-15T08:52:11.704Z,17.60
2017-10-15T08:54:38.100Z,17.50
2017-10-15T08:57:04.527Z,17.30
2017-10-15T08:59:30.994Z,17.20
2017-10-15T09:01:57.424Z,17.30
2017-10-15T09:04:24.620Z,17.70
2017-10-15T09:06:51.029Z,17.70
2017-10-15T09:09:17.448Z,17.80
2017-10-15T09:11:43.821Z,17.90
2017-10-15T09:14:11.040Z,18.30
2017-10-15T09:16:37.484Z,18.20
2017-10-15T09:19:03.861Z,18.30
2017-10-15T09:21:30.293Z,18.40
2017-10-15T09:23:56.736Z,18.60
2017-10-15T09:26:23.143Z,18.70
2017-10-15T09:28:50.298Z,18.90
2017-10-15T09:31:17.438Z,18.90
2017-10-15T09:33:44.641Z,19.00
2017-10-15T09:36:11.088Z,19.00
2017-10-15T09:38:37.493Z,19.10
2017-10-15T09:41:03.913Z,19.10
2017-10-15T09:43:30.351Z,19.40
2017-10-15T09:45:56.744Z,19.40
2017-10-15T09:48:23.891Z,19.70
2017-10-15T09:50:51.052Z,19.90
2017-10-15T09:53:18.195Z,20.20
2017-10-15T09:55:45.347Z,20.10
2017-10-15T09:58:12.482Z,20.30
2017-10-15T10:00:40.395Z,20.20
2017-10-15T10:03:06.826Z,20.20
2017-10-15T10:05:33.213Z,20.30
2017-10-15T10:07:59.610Z,20.40
2017-10-15T10:10:26.031Z,20.60
2017-10-15T10:12:52.446Z,20.60
2017-10-15T10:15:19.689Z,20.80
2017-10-15T10:17:46.873Z,20.90
2017-10-15T10:20:13.364Z,20.80
2017-10-15T10:22:40.544Z,20.80
2017-10-15T10:25:06.945Z,20.70
2017-10-15T10:27:34.177Z,20.60
2017-10-15T10:30:00.614Z,20.60
2017-10-15T10:32:27.061Z,20.40
2017-10-15T10:34:54.239Z,20.50
2017-10-15T10:37:20.621Z,20.50
2017-10-15T10:39:47.017Z,20.60
2017-10-15T10:42:13.403Z,20.80
2017-10-15T10:44:39.857Z,21.30
2017-10-15T10:47:07.025Z,22.20
2017-10-15T10:49:33.405Z,22.20
2017-10-15T10:51:59.852Z,22.50
2017-10-15T10:54:26.250Z,22.90
2017-10-15T10:56:52.729Z,23.20
2017-10-15T10:59:19.881Z,23.60
2017-10-15T11:01:47.032Z,23.90
2017-10-15T11:04:14.194Z,24.30
2017-10-15T11:06:41.352Z,24.60
2017-10-15T11:09:07.781Z,24.60
2017-10-15T11:11:34.253Z,25.00
2017-10-15T11:14:00.652Z,25.20
2017-10-15T11:16:27.129Z,25.30
2017-10-15T11:18:55.027Z,25.70
2017-10-15T11:21:22.196Z,25.50
2017-10-15T11:23:49.355Z,25.10
2017-10-15T11:26:15.787Z,25.00
2017-10-15T11:28:42.233Z,24.50
2017-10-15T11:31:08.635Z,24.10
2017-10-15T11:33:35.775Z,24.00
2017-10-15T11:36:02.964Z,23.90
2017-10-15T11:38:29.373Z,23.80
2017-10-15T11:40:56.561Z,23.50
2017-10-15T11:43:22.961Z,23.50
2017-10-15T11:45:50.142Z,23.50
2017-10-15T11:48:16.576Z,23.50
2017-10-15T11:50:42.975Z,23.60
2017-10-15T11:53:10.240Z,23.80
2017-10-15T11:55:36.689Z,23.70
2017-10-15T11:58:03.083Z,23.60
2017-10-15T12:00:30.972Z,23.70
2017-10-15T12:02:58.129Z,23.80
2017-10-15T12:05:24.535Z,23.70
2017-10-15T12:07:50.919Z,23.80
2017-10-15T12:10:17.321Z,23.60
2017-10-15T12:12:43.718Z,23.70
2017-10-15T12:15:10.098Z,23.50
2017-10-15T12:17:36.472Z,23.50
2017-10-15T12:20:02.919Z,23.40
2017-10-15T12:22:29.309Z,23.50
2017-10-15T12:24:55.845Z,23.50
2017-10-15T12:27:22.380Z,23.60
2017-10-15T12:29:48.793Z,23.70
2017-10-15T12:32:15.259Z,23.90
2017-10-15T12:34:41.657Z,23.90
2017-10-15T12:37:08.049Z,23.90
2017-10-15T12:39:34.432Z,23.90
2017-10-15T12:42:00.852Z,24.00
2017-10-15T12:44:27.268Z,24.00
2017-10-15T12:46:54.405Z,23.90
2017-10-15T12:49:22.290Z,23.80
2017-10-15T12:51:49.419Z,24.00
2017-10-15T12:54:16.624Z,24.00
2017-10-15T12:56:43.036Z,24.00
2017-10-15T12:59:09.463Z,24.10
2017-10-15T13:01:36.595Z,24.00
2017-10-15T13:04:03.729Z,24.00
2017-10-15T13:06:30.111Z,24.00
2017-10-15T13:08:56.529Z,24.00
2017-10-15T13:11:22.912Z,24.00
2017-10-15T13:13:49.325Z,24.00
2017-10-15T13:16:15.708Z,24.00
2017-10-15T13:18:42.098Z,24.10
2017-10-15T13:21:08.484Z,24.10
2017-10-15T13:23:35.630Z,24.40
2017-10-15T13:26:03.481Z,24.40
2017-10-15T13:28:31.413Z,24.40
2017-10-15T13:30:57.848Z,24.40
2017-10-15T13:33:24.245Z,24.50
2017-10-15T13:35:51.372Z,24.40
2017-10-15T13:38:18.517Z,24.30
2017-10-15T13:40:45.636Z,24.30
2017-10-15T13:43:12.758Z,24.30
2017-10-15T13:45:39.181Z,24.50
2017-10-15T13:48:05.568Z,24.50
2017-10-15T13:50:33.463Z,24.50
2017-10-15T13:53:01.039Z,24.50
2017-10-15T13:55:27.435Z,24.50
2017-10-15T13:57:54.036Z,24.30
2017-10-15T14:00:21.025Z,24.30
2017-10-15T14:02:48.922Z,24.10
2017-10-15T14:05:15.363Z,24.10
2017-10-15T14:07:41.791Z,24.10
2017-10-15T14:10:08.180Z,24.20
2017-10-15T14:12:34.590Z,24.20
2017-10-15T14:15:01.026Z,24.20
2017-10-15T14:17:27.430Z,24.20
2017-10-15T14:19:55.504Z,24.00
2017-10-15T14:22:21.970Z,24.00
2017-10-15T14:24:48.384Z,24.10
2017-10-15T14:27:14.873Z,24.00
2017-10-15T14:29:42.081Z,24.00
2017-10-15T14:32:08.507Z,24.00
2017-10-15T14:34:34.926Z,23.90
2017-10-15T14:37:01.310Z,24.00
2017-10-15T14:39:28.435Z,23.90
2017-10-15T14:41:54.860Z,23.90
2017-10-15T14:44:21.257Z,23.90
2017-10-15T14:46:48.372Z,23.90
2017-10-15T14:49:14.771Z,23.80
2017-10-15T14:51:41.253Z,23.90
2017-10-15T14:54:08.453Z,23.40
2017-10-15T14:56:34.886Z,23.40
2017-10-15T14:59:01.334Z,23.40
2017-10-15T15:01:27.758Z,23.30
2017-10-15T15:03:54.188Z,23.30
2017-10-15T15:06:20.654Z,23.30
2017-10-15T15:08:47.070Z,23.10
2017-10-15T15:11:13.485Z,23.00
2017-10-15T15:13:39.918Z,22.90
2017-10-15T15:16:06.315Z,22.90
2017-10-15T15:18:32.730Z,23.00
2017-10-15T15:20:59.843Z,22.80
2017-10-15T15:23:26.233Z,22.80
2017-10-15T15:25:52.611Z,22.80
2017-10-15T15:28:19.013Z,22.90
2017-10-15T15:30:47.562Z,22.80
2017-10-15T15:33:14.712Z,22.50
2017-10-15T15:35:41.872Z,22.50
2017-10-15T15:38:09.013Z,22.50
2017-10-15T15:40:36.172Z,22.40
2017-10-15T15:43:03.312Z,22.50
2017-10-15T15:45:30.453Z,22.30
2017-10-15T15:47:56.825Z,22.30
2017-10-15T15:50:23.207Z,22.20
2017-10-15T15:52:49.657Z,22.10
2017-10-15T15:55:16.957Z,22.10
2017-10-15T15:57:43.369Z,22.00
2017-10-15T16:00:09.756Z,21.80
2017-10-15T16:02:36.246Z,21.70
2017-10-15T16:05:02.701Z,21.50
2017-10-15T16:07:29.114Z,21.40
2017-10-15T16:09:55.585Z,21.20
2017-10-15T16:12:21.974Z,21.00
2017-10-15T16:14:48.406Z,20.70
2017-10-15T16:17:14.820Z,20.60
2017-10-15T16:19:41.191Z,20.50
2017-10-15T16:22:07.609Z,20.30
2017-10-15T16:24:34.016Z,20.20
2017-10-15T16:27:01.165Z,19.60
2017-10-15T16:29:28.331Z,19.60
2017-10-15T16:31:54.871Z,19.50
2017-10-15T16:34:21.304Z,19.50
2017-10-15T16:36:47.724Z,19.40
2017-10-15T16:39:15.024Z,19.20
2017-10-15T16:41:41.442Z,19.20
2017-10-15T16:44:07.862Z,19.10
2017-10-15T16:46:34.274Z,18.90
2017-10-15T16:49:01.479Z,18.80
2017-10-15T16:51:27.876Z,18.70
2017-10-15T16:53:54.656Z,18.70
2017-10-15T16:56:21.080Z,18.50
2017-10-15T16:58:47.481Z,18.40
2017-10-15T17:01:13.913Z,18.30
2017-10-15T17:03:40.343Z,18.20
2017-10-15T17:06:06.781Z,18.20
2017-10-15T17:08:33.944Z,18.00
2017-10-15T17:11:00.435Z,18.00
2017-10-15T17:13:26.864Z,18.00
2017-10-15T17:15:53.273Z,17.70
2017-10-15T17:18:19.714Z,17.60
2017-10-15T17:20:46.162Z,17.50
2017-10-15T17:23:14.100Z,17.20
2017-10-15T17:25:40.522Z,17.20
2017-10-15T17:28:06.908Z,17.20
2017-10-15T17:30:34.050Z,17.10
2017-10-15T17:33:00.428Z,17.00
2017-10-15T17:35:26.874Z,17.10
2017-10-15T17:37:53.279Z,16.90
2017-10-15T17:40:19.696Z,16.70
2017-10-15T17:42:46.887Z,16.70
2017-10-15T17:45:13.359Z,16.70
2017-10-15T17:47:40.022Z,16.70
2017-10-15T17:50:08.169Z,16.40
2017-10-15T17:52:34.647Z,16.40
2017-10-15T17:55:01.162Z,16.30
2017-10-15T17:57:28.341Z,16.30
2017-10-15T17:59:54.790Z,16.30
2017-10-15T18:02:27.001Z,16.20
2017-10-15T18:04:53.425Z,16.10
2017-10-15T18:07:19.796Z,16.00
2017-10-15T18:09:46.250Z,15.80
2017-10-15T18:12:13.031Z,15.80
2017-10-15T18:14:39.456Z,15.70
2017-10-15T18:17:05.860Z,15.60
2017-10-15T18:19:33.395Z,15.60
2017-10-15T18:22:00.020Z,15.50
2017-10-15T18:24:26.469Z,15.50
2017-10-15T18:26:52.876Z,15.40
2017-10-15T18:29:20.060Z,15.20
2017-10-15T18:31:46.543Z,15.20
2017-10-15T18:34:12.955Z,15.20
2017-10-15T18:36:39.381Z,15.10
2017-10-15T18:39:05.819Z,15.10
2017-10-15T18:41:32.252Z,15.00
2017-10-15T18:43:58.679Z,14.80
2017-10-15T18:46:25.110Z,14.80
2017-10-15T18:48:51.513Z,14.60
2017-10-15T18:51:18.020Z,14.40
2017-10-15T18:53:45.226Z,14.10
2017-10-15T18:56:11.654Z,14.10
2017-10-15T18:58:38.070Z,14.10
2017-10-15T19:01:04.478Z,14.10
2017-10-15T19:03:32.335Z,13.90
2017-10-15T19:05:58.732Z,13.90
2017-10-15T19:08:25.136Z,13.90
2017-10-15T19:10:51.564Z,13.90
2017-10-15T19:13:17.960Z,13.90
2017-10-15T19:15:44.432Z,13.90
2017-10-15T19:18:10.838Z,13.90
2017-10-15T19:20:37.267Z,13.90
2017-10-15T19:23:05.141Z,13.80
2017-10-15T19:25:32.291Z,13.80
2017-10-15T19:27:59.445Z,13.80
2017-10-15T19:30:26.661Z,13.80
2017-10-15T19:32:53.094Z,13.70
2017-10-15T19:35:19.496Z,13.70
2017-10-15T19:37:45.916Z,13.60
2017-10-15T19:40:12.353Z,13.60
2017-10-15T19:42:38.819Z,13.50
2017-10-15T19:45:05.213Z,13.50
2017-10-15T19:47:31.633Z,13.40
2017-10-15T19:49:58.107Z,13.50
2017-10-15T19:52:24.495Z,13.50
2017-10-15T19:54:51.660Z,13.40
2017-10-15T19:57:18.777Z,13.30
2017-10-15T19:59:45.907Z,13.20
2017-10-15T20:02:12.318Z,13.20
2017-10-15T20:04:38.733Z,13.20
2017-10-15T20:07:05.146Z,13.20
2017-10-15T20:09:32.297Z,13.00
2017-10-15T20:11:59.436Z,13.00
2017-10-15T20:14:26.633Z,12.90
2017-10-15T20:16:53.055Z,12.90
2017-10-15T20:19:19.485Z,12.90
2017-10-15T20:21:47.703Z,12.80
2017-10-15T20:24:14.192Z,12.80
2017-10-15T20:26:40.576Z,12.70
2017-10-15T20:29:07.718Z,12.60
2017-10-15T20:31:35.068Z,12.60
2017-10-15T20:34:01.486Z,12.60
2017-10-15T20:36:27.882Z,12.40
2017-10-15T20:38:54.286Z,12.40
2017-10-15T20:41:20.672Z,12.40
2017-10-15T20:43:47.085Z,12.50
2017-10-15T20:46:13.501Z,12.50
2017-10-15T20:48:40.672Z,12.50
2017-10-15T20:51:07.124Z,12.40
2017-10-15T20:53:33.514Z,12.30
2017-10-15T20:56:00.663Z,12.20
2017-10-15T20:58:27.792Z,12.10
2017-10-15T21:00:54.184Z,12.10
2017-10-15T21:03:20.592Z,12.10
2017-10-15T21:05:46.994Z,12.10
2017-10-15T21:08:14.117Z,12.10
2017-10-15T21:10:40.584Z,12.00
2017-10-15T21:13:07.725Z,12.00
2017-10-15T21:15:34.133Z,12.00
2017-10-15T21:18:00.541Z,12.00
2017-10-15T21:20:27.016Z,11.90
2017-10-15T21:22:54.892Z,11.80
2017-10-15T21:25:21.270Z,11.80
2017-10-15T21:27:47.672Z,11.80
2017-10-15T21:30:14.819Z,11.80
2017-10-15T21:32:41.970Z,11.70
2017-10-15T21:35:08.405Z,11.60
2017-10-15T21:37:35.536Z,11.50
2017-10-15T21:40:01.987Z,11.50
2017-10-15T21:42:29.171Z,11.60
2017-10-15T21:44:55.633Z,11.60
2017-10-15T21:47:22.054Z,11.50
2017-10-15T21:49:48.453Z,11.40
2017-10-15T21:52:14.867Z,11.40
2017-10-15T21:54:42.033Z,11.30
2017-10-15T21:57:09.171Z,11.30
2017-10-15T21:59:36.343Z,11.30
2017-10-15T22:02:02.846Z,11.30
2017-10-15T22:04:29.989Z,11.20
2017-10-15T22:06:57.124Z,11.20
2017-10-15T22:09:23.525Z,11.20
2017-10-15T22:11:49.975Z,11.20
2017-10-15T22:14:16.357Z,11.10
2017-10-15T22:16:43.483Z,11.00
2017-10-15T22:19:09.885Z,11.00
2017-10-15T22:21:42.418Z,10.90
2017-10-15T22:24:08.884Z,10.80
2017-10-15T22:26:35.310Z,10.80
2017-10-15T22:29:01.707Z,10.60
2017-10-15T22:31:28.873Z,10.30
2017-10-15T22:33:56.002Z,10.30
2017-10-15T22:36:23.138Z,10.40
2017-10-15T22:38:49.533Z,10.40
2017-10-15T22:41:16.095Z,10.40
2017-10-15T22:43:42.515Z,10.50
2017-10-15T22:46:08.942Z,10.60
2017-10-15T22:48:35.336Z,10.50
2017-10-15T22:51:02.467Z,10.40
2017-10-15T22:53:29.673Z,10.20
2017-10-15T22:55:56.112Z,10.30
2017-10-15T22:58:22.532Z,10.10
2017-10-15T23:00:48.993Z,10.10
2017-10-15T23:03:16.887Z,10.20
2017-10-15T23:05:44.048Z,10.20
2017-10-15T23:08:11.295Z,10.20
2017-10-15T23:10:38.424Z,10.20
2017-10-15T23:13:05.559Z,10.20
2017-10-15T23:15:31.988Z,10.10
2017-10-15T23:17:58.412Z,10.10
2017-10-15T23:20:24.819Z,10.20
2017-10-15T23:22:51.217Z,10.10
2017-10-15T23:25:18.382Z,10.10
2017-10-15T23:27:45.554Z,10.00
2017-10-15T23:30:11.948Z,10.00
2017-10-15T23:32:39.100Z,9.90
2017-10-15T23:35:06.268Z,9.80
2017-10-15T23:37:33.402Z,9.70
2017-10-15T23:40:00.538Z,9.60
2017-10-15T23:42:27.007Z,9.60
2017-10-15T23:44:53.588Z,9.60
2017-10-15T23:47:19.982Z,9.60
2017-10-15T23:49:46.429Z,9.70
2017-10-15T23:52:12.819Z,9.70
2017-10-15T23:54:39.958Z,9.70
2017-10-15T23:57:06.395Z,9.70
2017-10-15T23:59:32.802Z,9.70
